DLH722A EDDM-ZBAA
Flight info
| Callsign | DLH722A |
|---|---|
| Flight time | N/A |
| Altitude | 37000 |
| Route | KIRDI4N KIRDI DCT BUWOQ DCT OBFEZ DCT STEIN DCT TEGRI DCT LUGEB DCT UDROS UM859 KARDE UN644 ROLIN DCT TAGAR DCT BT DCT BARAD M747 SUBUT T916 BALUN/K0896F370 T916 PIGAL M610 RULAD/K0880S1130 A343 POSOT B215 FKG W188 LIKMI W270 DKO W69 GUVBA GUVBA7X |
| Aircraft | A359/H-SADE2E3GHIJ1J2J3J4J5M1P2RWXYZ/LB1D1 |
Departure
| Time | 2026-05-06 22:41 |
|---|---|
| Airport | Munich Airport (EDDM) |
Arrival
| Time | N/A |
|---|---|
| Airport | Beijing Capital International Airport (ZBAA) |
| Time | Latitude | Longitude | Altitude | Speed | Heading |
|---|---|---|---|---|---|
| 2026-05-06 21:46 | 48.35500 | 11.79319 | 1492 ft | 0 kts | 263° |
| 2026-05-06 22:24 | 48.35500 | 11.79322 | 1491 ft | 2 kts | 263° |
| 2026-05-06 22:24 | 48.35501 | 11.79347 | 1478 ft | 2 kts | 270° |
| 2026-05-06 22:25 | 48.35500 | 11.79371 | 1482 ft | 2 kts | 279° |
| 2026-05-06 22:25 | 48.35496 | 11.79396 | 1478 ft | 2 kts | 291° |
| 2026-05-06 22:25 | 48.35489 | 11.79418 | 1476 ft | 2 kts | 307° |
| 2026-05-06 22:25 | 48.35477 | 11.79436 | 1476 ft | 2 kts | 324° |
| 2026-05-06 22:26 | 48.35463 | 11.79448 | 1476 ft | 2 kts | 339° |
| 2026-05-06 22:26 | 48.35447 | 11.79455 | 1476 ft | 2 kts | 349° |
| 2026-05-06 22:26 | 48.35439 | 11.79457 | 1476 ft | 1 kts | 352° |
| 2026-05-06 22:31 | 48.35453 | 11.79455 | 1476 ft | 7 kts | 352° |
| 2026-05-06 22:31 | 48.35522 | 11.79441 | 1476 ft | 12 kts | 353° |
| 2026-05-06 22:31 | 48.35610 | 11.79427 | 1484 ft | 13 kts | 354° |
| 2026-05-06 22:32 | 48.35705 | 11.79412 | 1484 ft | 14 kts | 354° |
| 2026-05-06 22:32 | 48.35806 | 11.79394 | 1484 ft | 15 kts | 353° |
| 2026-05-06 22:32 | 48.35896 | 11.79371 | 1476 ft | 10 kts | 333° |
| 2026-05-06 22:32 | 48.35966 | 11.79334 | 1477 ft | 12 kts | 352° |
| 2026-05-06 22:33 | 48.36054 | 11.79323 | 1483 ft | 13 kts | 354° |
| 2026-05-06 22:33 | 48.36150 | 11.79306 | 1477 ft | 14 kts | 353° |
| 2026-05-06 22:33 | 48.36206 | 11.79376 | 1480 ft | 12 kts | 78° |
| 2026-05-06 22:33 | 48.36217 | 11.79502 | 1485 ft | 13 kts | 83° |
| 2026-05-06 22:34 | 48.36224 | 11.79606 | 1479 ft | 17 kts | 83° |
| 2026-05-06 22:34 | 48.36245 | 11.79874 | 1490 ft | 22 kts | 83° |
| 2026-05-06 22:34 | 48.36257 | 11.80036 | 1491 ft | 25 kts | 83° |
| 2026-05-06 22:34 | 48.36277 | 11.80310 | 1481 ft | 28 kts | 83° |
| 2026-05-06 22:35 | 48.36300 | 11.80608 | 1491 ft | 29 kts | 83° |
| 2026-05-06 22:35 | 48.36329 | 11.80988 | 1491 ft | 25 kts | 83° |
| 2026-05-06 22:35 | 48.36343 | 11.81164 | 1487 ft | 25 kts | 83° |
| 2026-05-06 22:35 | 48.36369 | 11.81508 | 1483 ft | 24 kts | 82° |
| 2026-05-06 22:36 | 48.36385 | 11.81676 | 1488 ft | 25 kts | 82° |
| 2026-05-06 22:36 | 48.36404 | 11.81930 | 1491 ft | 21 kts | 88° |
| 2026-05-06 22:36 | 48.36401 | 11.82061 | 1491 ft | 11 kts | 90° |
| 2026-05-06 22:36 | 48.36439 | 11.82137 | 1478 ft | 9 kts | 6° |
| 2026-05-06 22:37 | 48.36502 | 11.82129 | 1484 ft | 9 kts | 353° |
| 2026-05-06 22:37 | 48.36543 | 11.82122 | 1478 ft | 0 kts | 353° |
| 2026-05-06 22:39 | 48.36552 | 11.82120 | 1491 ft | 4 kts | 353° |
| 2026-05-06 22:39 | 48.36604 | 11.82103 | 1483 ft | 11 kts | 345° |
| 2026-05-06 22:39 | 48.36672 | 11.82071 | 1477 ft | 8 kts | 330° |
| 2026-05-06 22:40 | 48.36681 | 11.82002 | 1478 ft | 7 kts | 260° |
| 2026-05-06 22:40 | 48.36676 | 11.81940 | 1486 ft | 13 kts | 262° |
| 2026-05-06 22:40 | 48.36641 | 11.81504 | 1481 ft | 74 kts | 263° |
| 2026-05-06 22:40 | 48.36560 | 11.80455 | 1488 ft | 129 kts | 263° |
| 2026-05-06 22:41 | 48.36281 | 11.77149 | 2331 ft | 161 kts | 260° |
| 2026-05-06 22:41 | 48.36096 | 11.75490 | 3098 ft | 160 kts | 261° |
| 2026-05-06 22:41 | 48.35911 | 11.73776 | 3542 ft | 174 kts | 262° |
| 2026-05-06 22:42 | 48.35434 | 11.72021 | 3721 ft | 195 kts | 234° |
| 2026-05-06 22:42 | 48.34250 | 11.70947 | 4072 ft | 214 kts | 196° |
| 2026-05-06 22:42 | 48.32735 | 11.70779 | 4619 ft | 221 kts | 186° |
| 2026-05-06 22:42 | 48.31185 | 11.70779 | 5125 ft | 223 kts | 186° |
| 2026-05-06 22:43 | 48.29620 | 11.70809 | 5671 ft | 227 kts | 182° |
| 2026-05-06 22:43 | 48.28064 | 11.71449 | 6156 ft | 242 kts | 158° |
| 2026-05-06 22:43 | 48.26583 | 11.72825 | 6438 ft | 260 kts | 150° |
| 2026-05-06 22:43 | 48.25043 | 11.74437 | 6713 ft | 275 kts | 150° |
| 2026-05-06 22:44 | 48.23471 | 11.76076 | 7140 ft | 281 kts | 150° |
| 2026-05-06 22:44 | 48.21853 | 11.77746 | 7709 ft | 283 kts | 150° |
| 2026-05-06 22:44 | 48.20275 | 11.79388 | 8292 ft | 285 kts | 148° |
| 2026-05-06 22:44 | 48.18882 | 11.81552 | 8887 ft | 295 kts | 125° |
| 2026-05-06 22:45 | 48.18254 | 11.84503 | 9484 ft | 304 kts | 95° |
| 2026-05-06 22:45 | 48.18373 | 11.87689 | 10078 ft | 308 kts | 85° |
| 2026-05-06 22:45 | 48.18636 | 11.90884 | 10620 ft | 310 kts | 85° |
| 2026-05-06 22:45 | 48.18896 | 11.94120 | 11176 ft | 313 kts | 85° |
| 2026-05-06 22:46 | 48.19141 | 11.97328 | 11696 ft | 314 kts | 86° |
| 2026-05-06 22:46 | 48.19381 | 12.00599 | 12267 ft | 316 kts | 86° |
| 2026-05-06 22:46 | 48.19617 | 12.03890 | 12850 ft | 318 kts | 86° |
| 2026-05-06 22:46 | 48.19852 | 12.07202 | 13430 ft | 319 kts | 86° |
| 2026-05-06 22:47 | 48.20086 | 12.10528 | 13971 ft | 321 kts | 86° |
| 2026-05-06 22:47 | 48.20319 | 12.13876 | 14440 ft | 325 kts | 86° |
| 2026-05-06 22:47 | 48.20553 | 12.17264 | 14919 ft | 327 kts | 86° |
| 2026-05-06 22:47 | 48.20787 | 12.20671 | 15429 ft | 330 kts | 86° |
| 2026-05-06 22:48 | 48.21020 | 12.24062 | 15920 ft | 332 kts | 86° |
| 2026-05-06 22:48 | 48.21256 | 12.27526 | 16389 ft | 336 kts | 87° |
| 2026-05-06 22:48 | 48.21493 | 12.31028 | 16878 ft | 338 kts | 87° |
| 2026-05-06 22:48 | 48.21731 | 12.34556 | 17359 ft | 341 kts | 87° |
| 2026-05-06 22:49 | 48.21971 | 12.38117 | 17831 ft | 344 kts | 87° |
| 2026-05-06 22:49 | 48.22211 | 12.41706 | 18286 ft | 348 kts | 87° |
| 2026-05-06 22:49 | 48.22453 | 12.45332 | 18688 ft | 351 kts | 87° |
| 2026-05-06 22:49 | 48.22695 | 12.48981 | 18936 ft | 351 kts | 87° |
| 2026-05-06 22:50 | 48.22933 | 12.52583 | 19177 ft | 353 kts | 88° |
| 2026-05-06 22:50 | 48.23114 | 12.56267 | 19406 ft | 353 kts | 94° |
| 2026-05-06 22:50 | 48.22908 | 12.59942 | 19662 ft | 355 kts | 102° |
| 2026-05-06 22:50 | 48.22554 | 12.63652 | 19884 ft | 364 kts | 102° |
| 2026-05-06 22:51 | 48.22177 | 12.67475 | 19937 ft | 377 kts | 102° |
| 2026-05-06 22:51 | 48.21790 | 12.71450 | 19943 ft | 392 kts | 102° |
| 2026-05-06 22:51 | 48.21400 | 12.75505 | 20037 ft | 402 kts | 102° |
| 2026-05-06 22:51 | 48.21002 | 12.79697 | 20210 ft | 410 kts | 101° |
| 2026-05-06 22:52 | 48.20758 | 12.84017 | 20375 ft | 420 kts | 95° |
| 2026-05-06 22:52 | 48.20717 | 12.88451 | 20560 ft | 427 kts | 92° |
| 2026-05-06 22:52 | 48.20784 | 12.92938 | 20832 ft | 432 kts | 91° |
| 2026-05-06 22:52 | 48.20891 | 12.97448 | 21136 ft | 435 kts | 91° |
| 2026-05-06 22:53 | 48.21001 | 13.01939 | 21444 ft | 437 kts | 91° |
| 2026-05-06 22:53 | 48.21101 | 13.06518 | 21761 ft | 440 kts | 91° |
| 2026-05-06 22:53 | 48.21186 | 13.11115 | 22080 ft | 442 kts | 92° |
| 2026-05-06 22:53 | 48.21255 | 13.15597 | 22375 ft | 444 kts | 92° |
| 2026-05-06 22:54 | 48.21318 | 13.20248 | 22697 ft | 446 kts | 92° |
| 2026-05-06 22:54 | 48.21375 | 13.24918 | 23019 ft | 448 kts | 92° |
| 2026-05-06 22:54 | 48.21429 | 13.29560 | 23317 ft | 450 kts | 92° |
| 2026-05-06 22:54 | 48.21480 | 13.34281 | 23604 ft | 453 kts | 92° |
| 2026-05-06 22:55 | 48.21531 | 13.38923 | 23866 ft | 454 kts | 92° |
| 2026-05-06 22:55 | 48.21582 | 13.43669 | 24139 ft | 456 kts | 92° |
| 2026-05-06 22:55 | 48.21630 | 13.48373 | 24408 ft | 457 kts | 92° |
| 2026-05-06 22:55 | 48.21678 | 13.53163 | 24699 ft | 459 kts | 92° |
| 2026-05-06 22:56 | 48.21723 | 13.57952 | 24963 ft | 460 kts | 92° |
| 2026-05-06 22:56 | 48.21766 | 13.62715 | 25235 ft | 462 kts | 92° |
| 2026-05-06 22:56 | 48.21808 | 13.67554 | 25517 ft | 463 kts | 92° |
| 2026-05-06 22:56 | 48.21848 | 13.72383 | 25794 ft | 464 kts | 92° |
| 2026-05-06 22:57 | 48.21887 | 13.77241 | 26065 ft | 466 kts | 92° |
| 2026-05-06 22:57 | 48.21923 | 13.82127 | 26349 ft | 467 kts | 92° |
| 2026-05-06 22:57 | 48.21957 | 13.87013 | 26621 ft | 469 kts | 92° |
| 2026-05-06 22:57 | 48.21987 | 13.91854 | 26893 ft | 471 kts | 92° |
| 2026-05-06 22:58 | 48.21793 | 13.96754 | 27157 ft | 468 kts | 101° |
| 2026-05-06 22:58 | 48.21100 | 14.01501 | 27450 ft | 465 kts | 111° |
| 2026-05-06 22:58 | 48.20011 | 14.05993 | 27731 ft | 464 kts | 115° |
| 2026-05-06 22:58 | 48.18760 | 14.10530 | 27997 ft | 465 kts | 117° |
| 2026-05-06 22:59 | 48.17472 | 14.14927 | 28275 ft | 466 kts | 118° |
| 2026-05-06 22:59 | 48.16140 | 14.19373 | 28570 ft | 467 kts | 118° |
| 2026-05-06 22:59 | 48.14805 | 14.23810 | 28868 ft | 469 kts | 118° |
| 2026-05-06 22:59 | 48.13460 | 14.28299 | 29142 ft | 471 kts | 118° |
| 2026-05-06 23:00 | 48.12127 | 14.32778 | 29421 ft | 473 kts | 118° |
| 2026-05-06 23:00 | 48.10786 | 14.37300 | 29719 ft | 475 kts | 118° |
| 2026-05-06 23:00 | 48.09446 | 14.41826 | 30007 ft | 476 kts | 118° |
| 2026-05-06 23:00 | 48.08102 | 14.46367 | 30221 ft | 479 kts | 118° |
| 2026-05-06 23:01 | 48.06759 | 14.50897 | 30433 ft | 481 kts | 117° |
| 2026-05-06 23:01 | 48.05400 | 14.55472 | 30665 ft | 483 kts | 117° |
| 2026-05-06 23:01 | 48.04029 | 14.60082 | 30860 ft | 485 kts | 118° |
| 2026-05-06 23:01 | 48.02648 | 14.64712 | 31078 ft | 487 kts | 118° |
| 2026-05-06 23:02 | 48.01277 | 14.69305 | 31306 ft | 489 kts | 117° |
| 2026-05-06 23:02 | 47.99882 | 14.73965 | 31491 ft | 491 kts | 117° |
| 2026-05-06 23:02 | 47.98479 | 14.78642 | 31698 ft | 493 kts | 117° |
| 2026-05-06 23:02 | 47.97071 | 14.83326 | 31896 ft | 495 kts | 117° |
| 2026-05-06 23:03 | 47.95670 | 14.87977 | 32097 ft | 497 kts | 118° |
| 2026-05-06 23:03 | 47.94250 | 14.92685 | 32290 ft | 498 kts | 117° |
| 2026-05-06 23:03 | 47.92825 | 14.97399 | 32515 ft | 499 kts | 117° |
| 2026-05-06 23:03 | 47.91436 | 15.01987 | 32784 ft | 499 kts | 117° |
| 2026-05-06 23:04 | 47.90001 | 15.06720 | 33077 ft | 498 kts | 117° |
| 2026-05-06 23:04 | 47.88593 | 15.11358 | 33370 ft | 498 kts | 117° |
| 2026-05-06 23:04 | 47.87154 | 15.16083 | 33671 ft | 497 kts | 117° |
| 2026-05-06 23:04 | 47.85724 | 15.20771 | 33950 ft | 497 kts | 117° |
| 2026-05-06 23:05 | 47.84290 | 15.25461 | 34203 ft | 496 kts | 117° |
| 2026-05-06 23:05 | 47.82859 | 15.30133 | 34452 ft | 495 kts | 117° |
| 2026-05-06 23:05 | 47.81447 | 15.34734 | 34710 ft | 494 kts | 117° |
| 2026-05-06 23:05 | 47.80030 | 15.39376 | 34967 ft | 494 kts | 117° |
| 2026-05-06 23:06 | 47.78618 | 15.44048 | 35214 ft | 493 kts | 117° |
| 2026-05-06 23:06 | 47.77217 | 15.48695 | 35468 ft | 492 kts | 117° |
| 2026-05-06 23:06 | 47.75814 | 15.53341 | 35718 ft | 491 kts | 117° |
| 2026-05-06 23:06 | 47.74411 | 15.57976 | 35966 ft | 491 kts | 117° |
| 2026-05-06 23:07 | 47.73006 | 15.62607 | 36204 ft | 490 kts | 117° |
| 2026-05-06 23:07 | 47.71599 | 15.67226 | 36371 ft | 491 kts | 117° |
| 2026-05-06 23:07 | 47.70203 | 15.71791 | 36633 ft | 490 kts | 117° |
| 2026-05-06 23:07 | 47.68792 | 15.76399 | 36834 ft | 490 kts | 117° |
| 2026-05-06 23:08 | 47.67371 | 15.81034 | 36865 ft | 493 kts | 117° |
| 2026-05-06 23:08 | 47.64509 | 15.90341 | 36858 ft | 495 kts | 117° |
| 2026-05-06 23:09 | 47.61661 | 15.99576 | 36860 ft | 495 kts | 117° |
| 2026-05-06 23:09 | 47.58786 | 16.08857 | 36870 ft | 495 kts | 117° |
| 2026-05-06 23:10 | 47.55914 | 16.18093 | 36855 ft | 495 kts | 117° |
| 2026-05-06 23:10 | 47.53024 | 16.27355 | 36862 ft | 496 kts | 117° |
| 2026-05-06 23:11 | 47.50124 | 16.36615 | 36862 ft | 496 kts | 117° |
| 2026-05-06 23:11 | 47.47261 | 16.45723 | 36858 ft | 496 kts | 117° |
| 2026-05-06 23:12 | 47.44340 | 16.54983 | 36861 ft | 496 kts | 117° |
| 2026-05-06 23:12 | 47.41738 | 16.64376 | 36863 ft | 498 kts | 112° |
| 2026-05-06 23:13 | 47.39429 | 16.74057 | 36864 ft | 499 kts | 111° |
| 2026-05-06 23:13 | 47.37161 | 16.83747 | 36869 ft | 500 kts | 111° |
| 2026-05-06 23:14 | 47.34927 | 16.93234 | 36870 ft | 500 kts | 112° |
| 2026-05-06 23:14 | 47.32627 | 17.02922 | 36873 ft | 501 kts | 112° |
| 2026-05-06 23:15 | 47.30325 | 17.12560 | 36881 ft | 501 kts | 112° |
| 2026-05-06 23:15 | 47.27990 | 17.22291 | 36884 ft | 502 kts | 112° |
| 2026-05-06 23:16 | 47.25649 | 17.32006 | 36885 ft | 503 kts | 112° |